createdAt,value
2022-07-25T00:00:42.238Z,24.78
2022-07-25T00:04:09.469Z,24.67
2022-07-25T00:07:33.962Z,24.78
2022-07-25T00:10:55.601Z,24.68
2022-07-25T00:14:21.912Z,24.67
2022-07-25T00:17:43.650Z,24.73
2022-07-25T00:21:07.770Z,24.61
2022-07-25T00:24:31.568Z,24.65
2022-07-25T00:27:53.097Z,24.64
2022-07-25T00:31:17.929Z,24.59
2022-07-25T00:34:39.649Z,24.45
2022-07-25T00:38:01.501Z,24.54
2022-07-25T00:41:23.066Z,24.65
2022-07-25T00:44:47.449Z,24.68
2022-07-25T00:48:09.461Z,24.68
2022-07-25T00:51:34.195Z,24.62
2022-07-25T00:54:56.977Z,24.47
2022-07-25T00:58:19.025Z,24.38
2022-07-25T01:01:45.486Z,24.25
2022-07-25T01:05:08.837Z,24.14
2022-07-25T01:08:35.124Z,24.03
2022-07-25T01:11:56.713Z,23.96
2022-07-25T01:15:19.900Z,23.97
2022-07-25T01:18:41.607Z,23.92
2022-07-25T01:22:06.651Z,24.14
2022-07-25T01:25:31.466Z,24.24
2022-07-25T01:28:52.996Z,24.25
2022-07-25T01:32:17.577Z,24.04
2022-07-25T01:35:43.388Z,23.83
2022-07-25T01:39:05.259Z,24.04
2022-07-25T01:42:29.373Z,24.28
2022-07-25T01:45:51.139Z,24.44
2022-07-25T01:49:15.292Z,24.32
2022-07-25T01:52:41.072Z,24.24
2022-07-25T01:56:04.837Z,23.94
2022-07-25T01:59:31.673Z,23.97
2022-07-25T02:03:11.704Z,23.86
2022-07-25T02:06:35.220Z,23.96
2022-07-25T02:09:57.143Z,23.90
2022-07-25T02:13:18.894Z,23.84
2022-07-25T02:16:45.451Z,23.66
2022-07-25T02:20:07.590Z,23.65
2022-07-25T02:23:29.240Z,23.70
2022-07-25T02:26:53.513Z,23.65
2022-07-25T02:30:15.173Z,23.70
2022-07-25T02:33:37.674Z,23.53
2022-07-25T02:36:59.332Z,23.65
2022-07-25T02:40:23.037Z,23.76
2022-07-25T02:43:44.663Z,23.92
2022-07-25T02:47:06.365Z,24.03
2022-07-25T02:50:28.195Z,24.34
2022-07-25T02:53:58.467Z,24.55
2022-07-25T02:57:22.855Z,24.54
2022-07-25T03:00:44.545Z,24.69
2022-07-25T03:04:06.595Z,24.49
2022-07-25T03:07:30.410Z,24.30
2022-07-25T03:10:54.204Z,24.27
2022-07-25T03:14:20.568Z,24.18
2022-07-25T03:17:42.316Z,24.22
2022-07-25T03:21:08.868Z,24.22
2022-07-25T03:24:30.646Z,24.18
2022-07-25T03:27:54.745Z,23.90
2022-07-25T03:31:16.456Z,23.74
2022-07-25T03:34:43.988Z,23.67
2022-07-25T03:38:05.700Z,23.86
2022-07-25T03:41:27.974Z,23.87
2022-07-25T03:44:50.119Z,23.63
2022-07-25T03:48:12.302Z,23.28
2022-07-25T03:51:35.980Z,23.08
2022-07-25T03:54:57.593Z,23.04
2022-07-25T03:58:19.107Z,22.86
2022-07-25T04:01:41.087Z,22.83
2022-07-25T04:05:02.850Z,22.88
2022-07-25T04:08:24.421Z,23.03
2022-07-25T04:11:45.965Z,23.00
2022-07-25T04:15:10.638Z,22.83
2022-07-25T04:18:34.432Z,22.73
2022-07-25T04:21:56.264Z,22.67
2022-07-25T04:25:18.037Z,22.70
2022-07-25T04:28:43.058Z,23.22
2022-07-25T04:32:05.263Z,23.63
2022-07-25T04:35:29.418Z,23.99
2022-07-25T04:38:51.518Z,24.04
2022-07-25T04:42:13.119Z,24.20
2022-07-25T04:45:35.468Z,24.28
2022-07-25T04:48:57.525Z,24.41
2022-07-25T04:52:19.112Z,24.58
2022-07-25T04:55:40.846Z,24.76
2022-07-25T04:59:06.856Z,24.99
2022-07-25T05:02:28.782Z,25.26
2022-07-25T05:05:50.836Z,25.35
2022-07-25T05:09:12.491Z,25.45
2022-07-25T05:12:39.075Z,25.57
2022-07-25T05:16:00.706Z,25.70
2022-07-25T05:19:24.502Z,25.84
2022-07-25T05:22:46.395Z,25.98
2022-07-25T05:26:08.298Z,26.01
2022-07-25T05:29:30.098Z,26.12
2022-07-25T05:32:54.951Z,26.25
2022-07-25T05:36:17.106Z,26.33
2022-07-25T05:39:40.314Z,26.39
2022-07-25T05:43:04.537Z,26.47
2022-07-25T05:46:26.147Z,26.49
2022-07-25T05:49:50.365Z,26.63
2022-07-25T05:53:13.176Z,26.74
2022-07-25T05:56:34.792Z,26.70
2022-07-25T05:59:56.476Z,26.91
2022-07-25T06:03:19.451Z,27.05
2022-07-25T06:06:43.526Z,26.65
2022-07-25T06:10:05.769Z,26.64
2022-07-25T06:13:30.006Z,26.63
2022-07-25T06:16:51.660Z,26.33
2022-07-25T06:20:13.503Z,26.05
2022-07-25T06:23:35.316Z,26.47
2022-07-25T06:26:57.058Z,26.26
2022-07-25T06:30:23.375Z,26.43
2022-07-25T06:33:52.121Z,26.78
2022-07-25T06:37:18.207Z,27.02
2022-07-25T06:40:39.897Z,27.01
2022-07-25T06:44:01.560Z,26.83
2022-07-25T06:47:23.080Z,26.70
2022-07-25T06:50:47.833Z,26.53
2022-07-25T06:54:13.766Z,26.40
2022-07-25T06:57:38.537Z,27.04
2022-07-25T07:01:01.387Z,27.04
2022-07-25T07:04:25.459Z,27.12
2022-07-25T07:07:48.048Z,27.21
2022-07-25T07:11:09.872Z,27.24
2022-07-25T07:14:33.981Z,27.06
2022-07-25T07:17:55.627Z,27.38
2022-07-25T07:21:21.151Z,27.57
2022-07-25T07:24:44.278Z,27.24
2022-07-25T07:28:07.074Z,27.60
2022-07-25T07:31:28.969Z,28.07
2022-07-25T07:34:50.572Z,28.10
2022-07-25T07:38:12.500Z,27.66
2022-07-25T07:41:34.103Z,28.38
2022-07-25T07:44:55.728Z,28.31
2022-07-25T07:48:19.491Z,28.90
2022-07-25T07:51:44.569Z,29.57
2022-07-25T07:55:26.403Z,30.00
2022-07-25T07:58:50.982Z,29.75
2022-07-25T08:02:12.608Z,30.07
2022-07-25T08:05:39.643Z,30.34
2022-07-25T08:09:01.183Z,30.34
2022-07-25T08:12:25.082Z,30.19
2022-07-25T08:15:52.268Z,29.39
2022-07-25T08:19:14.023Z,28.73
2022-07-25T08:22:56.022Z,29.25
2022-07-25T08:26:20.360Z,29.15
2022-07-25T08:29:44.368Z,29.62
2022-07-25T08:33:10.678Z,29.25
2022-07-25T08:36:34.951Z,29.47
2022-07-25T08:39:59.263Z,29.63
2022-07-25T08:43:27.212Z,29.80
2022-07-25T08:46:49.678Z,29.75
2022-07-25T08:50:15.936Z,30.26
2022-07-25T08:53:40.339Z,30.21
2022-07-25T08:57:02.294Z,30.37
2022-07-25T09:00:29.453Z,31.00
2022-07-25T09:03:51.273Z,30.38
2022-07-25T09:07:15.150Z,30.06
2022-07-25T09:10:37.917Z,29.95
2022-07-25T09:14:07.392Z,30.28
2022-07-25T09:17:34.005Z,30.74
2022-07-25T09:20:59.520Z,31.11
2022-07-25T09:24:23.553Z,30.89
2022-07-25T09:27:50.533Z,30.17
2022-07-25T09:31:12.559Z,30.43
2022-07-25T09:34:42.754Z,30.53
2022-07-25T09:38:13.600Z,30.74
2022-07-25T09:41:37.148Z,31.44
2022-07-25T09:45:12.468Z,31.89
2022-07-25T09:48:36.886Z,31.11
2022-07-25T09:51:58.704Z,31.47
2022-07-25T09:55:24.953Z,31.30
2022-07-25T09:58:46.762Z,31.37
2022-07-25T10:02:32.120Z,31.82
2022-07-25T10:06:00.455Z,31.80
2022-07-25T10:09:24.890Z,31.50
2022-07-25T10:12:59.011Z,31.77
2022-07-25T10:16:22.877Z,31.40
2022-07-25T10:19:51.847Z,31.91
2022-07-25T10:23:24.156Z,31.59
2022-07-25T10:26:55.110Z,31.92
2022-07-25T10:30:27.366Z,32.32
2022-07-25T10:34:01.699Z,32.53
2022-07-25T10:37:28.098Z,32.35
2022-07-25T10:40:54.978Z,31.70
2022-07-25T10:44:16.728Z,31.74
2022-07-25T10:47:42.965Z,32.43
2022-07-25T10:51:11.058Z,31.88
2022-07-25T10:54:38.122Z,32.08
2022-07-25T10:58:17.229Z,32.66
2022-07-25T11:01:42.396Z,32.62
2022-07-25T11:05:04.484Z,32.26
2022-07-25T11:08:36.183Z,31.97
2022-07-25T11:11:59.362Z,31.95
2022-07-25T11:15:24.775Z,32.12
2022-07-25T11:18:46.449Z,31.97
2022-07-25T11:22:10.060Z,32.12
2022-07-25T11:25:34.404Z,31.92
2022-07-25T11:28:56.325Z,32.11
2022-07-25T11:32:21.939Z,32.52
2022-07-25T11:35:43.643Z,32.70
2022-07-25T11:39:05.631Z,32.39
2022-07-25T11:42:29.599Z,32.52
2022-07-25T11:46:06.674Z,32.49
2022-07-25T11:49:28.516Z,32.45
2022-07-25T11:53:00.405Z,32.36
2022-07-25T11:56:42.347Z,32.51
2022-07-25T12:00:17.324Z,32.84
2022-07-25T12:03:39.156Z,33.10
2022-07-25T12:07:06.106Z,33.59
2022-07-25T12:10:40.086Z,33.49
2022-07-25T12:14:07.592Z,32.76
2022-07-25T12:17:31.354Z,32.80
2022-07-25T12:20:53.402Z,32.42
2022-07-25T12:24:17.551Z,32.48
2022-07-25T12:27:42.161Z,32.42
2022-07-25T12:31:04.589Z,32.52
2022-07-25T12:34:26.299Z,32.40
2022-07-25T12:37:47.929Z,32.52
2022-07-25T12:41:17.453Z,32.26
2022-07-25T12:44:41.574Z,32.29
2022-07-25T12:48:03.498Z,32.39
2022-07-25T12:51:25.107Z,32.63
2022-07-25T12:54:49.931Z,32.28
2022-07-25T12:58:17.926Z,32.70
2022-07-25T13:01:42.358Z,32.97
2022-07-25T13:05:09.024Z,33.08
2022-07-25T13:08:31.707Z,33.25
2022-07-25T13:11:54.784Z,33.28
2022-07-25T13:15:18.179Z,33.38
2022-07-25T13:18:42.144Z,33.41
2022-07-25T13:22:03.842Z,33.17
2022-07-25T13:25:25.476Z,33.10
2022-07-25T13:28:47.266Z,32.73
2022-07-25T13:32:09.187Z,32.63
2022-07-25T13:35:38.118Z,32.93
2022-07-25T13:39:00.937Z,32.94
2022-07-25T13:42:25.536Z,32.43
2022-07-25T13:45:47.164Z,32.60
2022-07-25T13:49:12.132Z,32.79
2022-07-25T13:52:33.884Z,32.76
2022-07-25T13:55:56.694Z,32.82
2022-07-25T13:59:21.747Z,32.94
2022-07-25T14:02:46.076Z,32.94
2022-07-25T14:06:11.257Z,32.63
2022-07-25T14:09:32.837Z,32.70
2022-07-25T14:12:56.695Z,32.83
2022-07-25T14:16:23.246Z,32.93
2022-07-25T14:19:47.521Z,33.20
2022-07-25T14:23:11.189Z,33.31
2022-07-25T14:26:38.277Z,33.20
2022-07-25T14:29:59.850Z,33.25
2022-07-25T14:33:21.591Z,33.44
2022-07-25T14:36:47.539Z,33.34
2022-07-25T14:40:11.083Z,33.20
2022-07-25T14:43:32.641Z,33.06
2022-07-25T14:46:54.717Z,33.01
2022-07-25T14:50:16.803Z,33.15
2022-07-25T14:53:38.345Z,33.14
2022-07-25T14:57:02.214Z,33.12
2022-07-25T15:00:32.600Z,32.87
2022-07-25T15:03:57.215Z,32.66
2022-07-25T15:07:18.892Z,32.66
2022-07-25T15:10:41.054Z,32.39
2022-07-25T15:14:02.944Z,32.43
2022-07-25T15:17:24.551Z,32.49
2022-07-25T15:20:48.682Z,32.46
2022-07-25T15:24:12.736Z,32.48
2022-07-25T15:27:34.874Z,32.57
2022-07-25T15:31:04.252Z,32.49
2022-07-25T15:34:25.875Z,32.24
2022-07-25T15:37:47.585Z,32.28
2022-07-25T15:41:12.143Z,32.18
2022-07-25T15:44:35.832Z,32.19
2022-07-25T15:48:00.806Z,32.19
2022-07-25T15:51:24.035Z,32.22
2022-07-25T15:54:47.909Z,32.18
2022-07-25T15:58:17.106Z,32.24
2022-07-25T16:01:38.687Z,32.19
2022-07-25T16:05:04.120Z,32.15
2022-07-25T16:08:25.699Z,32.18
2022-07-25T16:11:49.618Z,32.16
2022-07-25T16:15:11.576Z,32.16
2022-07-25T16:18:35.392Z,32.15
2022-07-25T16:21:58.108Z,32.14
2022-07-25T16:25:19.797Z,32.08
2022-07-25T16:28:42.493Z,32.11
2022-07-25T16:32:05.541Z,32.02
2022-07-25T16:35:27.121Z,32.08
2022-07-25T16:38:53.478Z,32.02
2022-07-25T16:42:17.140Z,31.97
2022-07-25T16:45:38.842Z,31.85
2022-07-25T16:49:00.650Z,31.92
2022-07-25T16:52:22.912Z,31.87
2022-07-25T16:55:46.743Z,31.80
2022-07-25T16:59:11.280Z,31.81
2022-07-25T17:02:38.397Z,31.77
2022-07-25T17:06:01.272Z,31.71
2022-07-25T17:09:25.315Z,31.74
2022-07-25T17:12:49.353Z,31.70
2022-07-25T17:16:11.269Z,31.67
2022-07-25T17:19:39.768Z,31.63
2022-07-25T17:23:03.910Z,31.50
2022-07-25T17:26:29.553Z,31.46
2022-07-25T17:29:51.273Z,31.41
2022-07-25T17:33:12.903Z,31.49
2022-07-25T17:36:34.877Z,31.34
2022-07-25T17:40:01.719Z,31.25
2022-07-25T17:43:23.276Z,31.19
2022-07-25T17:46:45.404Z,31.21
2022-07-25T17:50:12.540Z,31.12
2022-07-25T17:53:34.206Z,31.08
2022-07-25T17:56:56.268Z,30.95
2022-07-25T18:00:24.641Z,30.85
2022-07-25T18:03:47.595Z,30.75
2022-07-25T18:07:10.533Z,30.74
2022-07-25T18:10:35.542Z,30.71
2022-07-25T18:13:59.651Z,30.57
2022-07-25T18:17:23.475Z,30.54
2022-07-25T18:20:47.682Z,30.45
2022-07-25T18:24:14.525Z,30.43
2022-07-25T18:27:41.227Z,30.36
2022-07-25T18:31:05.743Z,30.28
2022-07-25T18:34:27.611Z,30.19
2022-07-25T18:37:49.617Z,30.00
2022-07-25T18:44:52.966Z,29.90
2022-07-25T18:48:15.318Z,29.85
2022-07-25T18:51:37.127Z,29.79
2022-07-25T18:54:58.884Z,29.58
2022-07-25T18:58:20.468Z,29.52
2022-07-25T19:01:42.093Z,29.25
2022-07-25T19:05:04.029Z,29.00
2022-07-25T19:08:27.005Z,28.84
2022-07-25T19:11:50.788Z,28.76
2022-07-25T19:15:15.104Z,28.62
2022-07-25T19:18:42.515Z,28.58
2022-07-25T19:22:04.199Z,28.48
2022-07-25T19:25:25.748Z,28.38
2022-07-25T19:28:50.485Z,28.39
2022-07-25T19:32:12.047Z,28.31
2022-07-25T19:35:38.341Z,28.19
2022-07-25T19:39:00.647Z,28.15
2022-07-25T19:42:27.567Z,28.12
2022-07-25T19:45:49.267Z,28.07
2022-07-25T19:49:13.375Z,27.98
2022-07-25T19:52:41.497Z,27.96
2022-07-25T19:56:06.719Z,27.96
2022-07-25T19:59:34.210Z,27.79
2022-07-25T20:03:00.983Z,27.86
2022-07-25T20:06:24.678Z,27.81
2022-07-25T20:09:47.574Z,27.71
2022-07-25T20:13:09.264Z,27.35
2022-07-25T20:16:31.245Z,27.19
2022-07-25T20:19:56.071Z,27.14
2022-07-25T20:23:20.363Z,27.05
2022-07-25T20:26:42.444Z,27.18
2022-07-25T20:30:06.163Z,27.19
2022-07-25T20:33:28.326Z,27.18
2022-07-25T20:36:50.051Z,27.14
2022-07-25T20:40:12.483Z,27.16
2022-07-25T20:43:38.016Z,27.08
2022-07-25T20:46:59.570Z,26.88
2022-07-25T20:50:21.654Z,26.70
2022-07-25T20:53:43.817Z,26.63
2022-07-25T20:57:05.751Z,26.54
2022-07-25T21:00:28.798Z,26.39
2022-07-25T21:03:50.613Z,26.25
2022-07-25T21:07:12.316Z,26.12
2022-07-25T21:10:36.557Z,26.02
2022-07-25T21:13:58.135Z,25.96
2022-07-25T21:17:22.644Z,25.85
2022-07-25T21:20:49.894Z,25.78
2022-07-25T21:24:13.978Z,25.74
2022-07-25T21:27:38.786Z,25.85
2022-07-25T21:31:00.779Z,25.80
2022-07-25T21:34:24.579Z,25.57
2022-07-25T21:37:48.640Z,25.50
2022-07-25T21:41:10.166Z,25.35
2022-07-25T21:44:31.877Z,25.34
2022-07-25T21:47:55.488Z,25.38
2022-07-25T21:51:22.946Z,25.41
2022-07-25T21:54:45.324Z,25.45
2022-07-25T21:58:10.182Z,25.27
2022-07-25T22:01:34.021Z,25.10
2022-07-25T22:04:56.314Z,25.09
2022-07-25T22:08:17.928Z,25.07
2022-07-25T22:11:46.514Z,25.07
2022-07-25T22:15:12.008Z,24.99
2022-07-25T22:18:34.119Z,24.96
2022-07-25T22:21:57.996Z,24.95
2022-07-25T22:25:22.548Z,24.76
2022-07-25T22:28:49.279Z,24.78
2022-07-25T22:32:11.335Z,24.61
2022-07-25T22:35:33.204Z,24.20
2022-07-25T22:38:54.836Z,24.11
2022-07-25T22:42:17.495Z,24.28
2022-07-25T22:45:42.943Z,24.28
2022-07-25T22:49:07.755Z,24.25
2022-07-25T22:52:35.107Z,24.41
2022-07-25T22:55:59.050Z,24.30
2022-07-25T22:59:20.804Z,24.24
2022-07-25T23:02:42.651Z,24.21
2022-07-25T23:06:04.605Z,24.10
2022-07-25T23:09:33.774Z,24.11
2022-07-25T23:13:00.651Z,24.21
2022-07-25T23:16:22.241Z,24.34
2022-07-25T23:19:50.548Z,24.42
2022-07-25T23:23:13.163Z,24.49
2022-07-25T23:26:37.011Z,24.47
2022-07-25T23:29:58.549Z,24.59
2022-07-25T23:33:25.095Z,24.76
2022-07-25T23:36:49.630Z,24.75
2022-07-25T23:40:12.098Z,24.42
2022-07-25T23:43:56.573Z,24.25
2022-07-25T23:47:15.426Z,24.14
2022-07-25T23:50:38.383Z,24.11
2022-07-25T23:54:00.066Z,24.21
2022-07-25T23:57:21.826Z,24.24
